Time;durP1;ratioP1;P1;durP2;ratioP2;P2;SDS_P1;SDS_P2;PMS_P1;PMS_P2;Temp;Humidity;BMP_temperature;BMP_pressure;BME280_temperature;BME280_humidity;BME280_pressure;Samples;Min_cycle;Max_cycle;Signal;HPM_P1;HPM_P2
2023/08/21 00:01:31;;;;;;;11.23;4.10;;;16.40;99.90;;;;;;5009469;28;93509;-36
2023/08/21 00:03:57;;;;;;;5.47;3.47;;;16.40;99.90;;;;;;4999022;28;94353;-32
2023/08/21 00:06:22;;;;;;;6.63;3.45;;;16.30;99.90;;;;;;4995359;28;94753;-38
2023/08/21 00:08:48;;;;;;;5.43;3.80;;;16.30;99.90;;;;;;4996813;28;94912;-34
2023/08/21 00:11:14;;;;;;;6.05;4.07;;;16.40;99.90;;;;;;5006065;28;94710;-38
2023/08/21 00:13:39;;;;;;;4.28;3.33;;;16.30;99.90;;;;;;4995305;28;95140;-34
2023/08/21 00:16:05;;;;;;;3.97;3.00;;;16.30;99.90;;;;;;4993587;28;96289;-31
2023/08/21 00:18:31;;;;;;;7.72;4.00;;;16.30;99.90;;;;;;5009474;28;96033;-35
2023/08/21 00:20:56;;;;;;;6.38;3.88;;;16.30;99.90;;;;;;5006452;27;95778;-33
2023/08/21 00:23:22;;;;;;;4.80;3.08;;;16.30;99.90;;;;;;5000109;28;93462;-33
2023/08/21 00:25:48;;;;;;;6.47;3.95;;;16.20;99.90;;;;;;5007838;28;95990;-36
2023/08/21 00:28:14;;;;;;;5.40;3.22;;;16.20;99.90;;;;;;4996757;28;94634;-33
2023/08/21 00:30:40;;;;;;;10.48;3.45;;;16.20;99.90;;;;;;4998451;28;93146;-34
2023/08/21 00:33:05;;;;;;;6.57;3.70;;;16.20;99.90;;;;;;4997573;28;93845;-33
2023/08/21 00:35:31;;;;;;;5.22;3.22;;;16.30;99.90;;;;;;4997942;28;94270;-38
2023/08/21 00:37:57;;;;;;;5.97;3.45;;;16.20;99.90;;;;;;4992246;28;94585;-35
2023/08/21 00:40:22;;;;;;;5.60;3.58;;;16.20;99.90;;;;;;4996973;28;94282;-32
2023/08/21 00:42:48;;;;;;;10.32;3.53;;;16.20;99.90;;;;;;5010024;28;93603;-34
2023/08/21 00:45:14;;;;;;;4.28;3.05;;;16.10;99.90;;;;;;4997381;28;94731;-31
2023/08/21 00:47:40;;;;;;;5.43;3.75;;;16.10;99.90;;;;;;5000716;28;95317;-35
2023/08/21 00:50:07;;;;;;;6.28;3.47;;;16.10;99.90;;;;;;5006905;28;93576;-34
2023/08/21 00:52:35;;;;;;;9.32;3.58;;;16.20;99.90;;;;;;4996548;28;94752;-31
2023/08/21 00:55:01;;;;;;;5.65;2.38;;;16.10;99.90;;;;;;4998526;28;94675;-32
2023/08/21 00:57:27;;;;;;;6.00;3.42;;;16.10;99.90;;;;;;5008730;28;93999;-31
2023/08/21 00:59:53;;;;;;;9.55;3.28;;;16.10;99.90;;;;;;4997326;28;93110;-31
2023/08/21 01:02:19;;;;;;;5.30;3.08;;;16.10;99.90;;;;;;5009078;28;94896;-34
2023/08/21 01:04:45;;;;;;;6.55;3.50;;;16.10;99.90;;;;;;4977909;28;95278;-32
2023/08/21 01:07:11;;;;;;;7.18;3.60;;;16.00;99.90;;;;;;4959672;28;96060;-38
2023/08/21 01:09:54;;;;;;;5.25;2.88;;;16.00;99.90;;;;;;4987645;28;94439;-32
2023/08/21 01:12:50;;;;;;;5.82;3.13;;;16.00;99.90;;;;;;5005837;28;92137;-31
2023/08/21 01:15:16;;;;;;;3.72;2.90;;;15.90;99.90;;;;;;4991187;28;95561;-34
2023/08/21 01:17:45;;;;;;;3.22;2.25;;;15.90;99.90;;;;;;4997488;28;94840;-31
2023/08/21 01:20:12;;;;;;;7.88;3.42;;;15.90;99.90;;;;;;5011379;28;94201;-33
2023/08/21 01:22:45;;;;;;;9.77;2.67;;;15.90;99.90;;;;;;4997682;28;93366;-31
2023/08/21 01:25:11;;;;;;;5.72;2.72;;;15.90;99.90;;;;;;4979241;28;94506;-36
2023/08/21 01:27:41;;;;;;;6.68;2.53;;;15.80;99.90;;;;;;4989272;28;94446;-31
2023/08/21 01:30:07;;;;;;;2.95;2.42;;;15.80;99.90;;;;;;4978700;28;95935;-32
2023/08/21 01:32:50;;;;;;;5.78;2.92;;;15.80;99.90;;;;;;4977879;28;92599;-33
2023/08/21 01:35:16;;;;;;;4.78;2.67;;;15.80;99.90;;;;;;4985541;28;94192;-33
2023/08/21 01:37:43;;;;;;;5.85;2.72;;;15.80;99.90;;;;;;4982728;28;94343;-37
2023/08/21 01:40:09;;;;;;;3.97;2.75;;;15.80;99.90;;;;;;4977380;28;92740;-33
2023/08/21 01:42:34;;;;;;;8.40;3.42;;;15.80;99.90;;;;;;4977511;28;93493;-31
2023/08/21 01:45:00;;;;;;;5.22;2.30;;;15.80;99.90;;;;;;4978202;28;95132;-37
2023/08/21 01:47:26;;;;;;;4.68;2.50;;;15.80;99.90;;;;;;4978002;28;93510;-37
2023/08/21 01:49:52;;;;;;;4.53;2.47;;;15.80;99.90;;;;;;4987467;28;94526;-36
2023/08/21 01:52:18;;;;;;;6.20;2.67;;;15.80;99.90;;;;;;4983960;28;93277;-32
2023/08/21 01:54:44;;;;;;;6.32;2.80;;;15.80;99.90;;;;;;5006289;28;95145;-31
2023/08/21 01:57:10;;;;;;;6.57;2.53;;;15.80;99.90;;;;;;4984789;28;95489;-34
2023/08/21 01:59:35;;;;;;;4.18;2.47;;;15.70;99.90;;;;;;4977632;28;94242;-35
2023/08/21 02:02:01;;;;;;;4.25;2.33;;;15.70;99.90;;;;;;5005917;28;93270;-34
2023/08/21 02:04:26;;;;;;;4.00;2.55;;;15.70;99.90;;;;;;4978492;28;95844;-32
2023/08/21 02:06:52;;;;;;;4.45;2.88;;;15.70;99.90;;;;;;4977046;28;94976;-33
2023/08/21 02:09:18;;;;;;;10.50;2.78;;;15.70;99.90;;;;;;4990639;28;93189;-37
2023/08/21 02:11:43;;;;;;;5.65;2.75;;;15.60;99.90;;;;;;4977274;28;92759;-37
2023/08/21 02:14:09;;;;;;;6.78;2.88;;;15.50;99.90;;;;;;4982933;28;94768;-34
2023/08/21 02:16:35;;;;;;;6.95;2.45;;;15.50;99.90;;;;;;4996527;28;95334;-34
2023/08/21 02:19:00;;;;;;;9.57;2.92;;;15.50;99.90;;;;;;5003782;28;94932;-34
2023/08/21 02:21:26;;;;;;;3.20;1.77;;;15.50;99.90;;;;;;4988744;28;95170;-32
2023/08/21 02:23:51;;;;;;;3.38;2.03;;;15.60;99.90;;;;;;4988913;28;94606;-35
2023/08/21 02:26:17;;;;;;;3.55;2.75;;;15.60;99.90;;;;;;4977520;28;94673;-35
2023/08/21 02:28:43;;;;;;;4.40;2.75;;;15.50;99.90;;;;;;4990058;28;92721;-32
2023/08/21 02:31:12;;;;;;;5.60;2.33;;;15.50;99.90;;;;;;4977744;28;94028;-38
2023/08/21 02:33:38;;;;;;;4.45;2.30;;;15.40;99.90;;;;;;4977791;28;94857;-35
2023/08/21 02:36:03;;;;;;;4.85;2.28;;;15.40;99.90;;;;;;4959331;28;94725;-35
2023/08/21 02:38:29;;;;;;;6.72;1.98;;;15.40;99.90;;;;;;4986237;28;93711;-32
2023/08/21 02:40:55;;;;;;;2.20;1.85;;;15.50;99.90;;;;;;4996087;28;92178;-32
2023/08/21 02:43:20;;;;;;;5.80;2.50;;;15.30;99.90;;;;;;4975308;28;96011;-31
2023/08/21 02:45:46;;;;;;;2.55;2.35;;;15.30;99.90;;;;;;4979703;28;95865;-33
2023/08/21 02:48:11;;;;;;;4.05;2.13;;;15.30;99.90;;;;;;4977521;28;93222;-37
2023/08/21 02:50:37;;;;;;;3.90;1.85;;;15.20;99.90;;;;;;4982061;28;94222;-32
2023/08/21 02:53:03;;;;;;;6.53;2.05;;;15.20;99.90;;;;;;4978435;28;94254;-32
2023/08/21 02:55:29;;;;;;;5.78;2.90;;;15.20;99.90;;;;;;4980538;28;94941;-37
2023/08/21 02:57:54;;;;;;;5.50;2.10;;;15.20;99.90;;;;;;4971504;28;93373;-32
2023/08/21 03:00:20;;;;;;;5.95;2.17;;;15.20;99.90;;;;;;4980208;28;93761;-34
2023/08/21 03:02:46;;;;;;;5.70;1.98;;;15.20;99.90;;;;;;5007380;28;94665;-32
2023/08/21 03:05:11;;;;;;;2.30;1.52;;;15.20;99.90;;;;;;4996040;28;94609;-36
2023/08/21 03:07:37;;;;;;;2.42;1.63;;;15.20;99.90;;;;;;4977449;28;95372;-37
2023/08/21 03:10:03;;;;;;;3.17;1.98;;;15.10;99.90;;;;;;4988530;28;92820;-33
2023/08/21 03:12:29;;;;;;;2.55;2.22;;;15.10;99.90;;;;;;4994622;28;94878;-31
2023/08/21 03:14:54;;;;;;;3.45;1.73;;;14.90;99.90;;;;;;4995442;28;94956;-32
2023/08/21 03:17:20;;;;;;;1.88;1.65;;;14.90;99.90;;;;;;4994557;28;92669;-35
2023/08/21 03:19:46;;;;;;;3.47;2.10;;;14.90;99.90;;;;;;5009984;28;92146;-34
2023/08/21 03:22:11;;;;;;;4.38;2.17;;;14.80;99.90;;;;;;5006507;28;97154;-36
2023/08/21 03:24:37;;;;;;;3.58;2.10;;;14.90;99.90;;;;;;4995085;28;94383;-31
2023/08/21 03:27:03;;;;;;;2.35;2.15;;;14.90;99.90;;;;;;4994186;28;92244;-32
2023/08/21 03:29:28;;;;;;;2.15;1.95;;;14.80;99.90;;;;;;4993844;28;94663;-33
2023/08/21 03:31:54;;;;;;;9.13;2.95;;;14.80;99.90;;;;;;4992836;28;95571;-31
2023/08/21 03:34:20;;;;;;;5.35;1.90;;;14.60;99.90;;;;;;4992800;28;95009;-33
2023/08/21 03:36:46;;;;;;;3.63;2.00;;;14.50;99.90;;;;;;5001679;28;93871;-37
2023/08/21 03:39:15;;;;;;;3.47;2.33;;;;;;;;;;4999549;28;94486;-35
2023/08/21 03:41:42;;;;;;;4.75;1.75;;;;;;;;;;4989698;28;94153;-31
2023/08/21 03:44:09;;;;;;;3.15;2.47;;;;;;;;;;4998706;28;92743;-32
2023/08/21 03:46:36;;;;;;;1.95;1.83;;;;;;;;;;4994738;28;94103;-36
2023/08/21 03:49:05;;;;;;;7.72;2.10;;;;;;;;;;4993825;28;92629;-35
2023/08/21 03:51:34;;;;;;;3.40;2.08;;;;;;;;;;4994761;28;94998;-32
2023/08/21 03:54:03;;;;;;;7.15;2.53;;;;;;;;;;4993354;27;93943;-34
2023/08/21 03:56:32;;;;;;;3.22;2.85;;;;;;;;;;5006969;28;94416;-33
2023/08/21 03:59:00;;;;;;;3.10;2.05;;;;;;;;;;4996044;28;92941;-32
2023/08/21 04:01:29;;;;;;;3.70;2.05;;;;;;;;;;4998413;28;93772;-32
2023/08/21 04:03:57;;;;;;;3.63;1.83;;;;;;;;;;4988011;28;94245;-32
2023/08/21 04:06:23;;;;;;;2.58;2.38;;;;;;;;;;4979597;28;94244;-34
2023/08/21 04:08:49;;;;;;;3.92;1.92;;;;;;;;;;4980000;28;94146;-32
2023/08/21 04:11:16;;;;;;;3.92;2.40;;;;;;;;;;4978486;28;94439;-31
2023/08/21 04:13:42;;;;;;;3.53;2.20;;;;;;;;;;4980754;28;94735;-34
2023/08/21 04:16:08;;;;;;;5.10;2.45;;;;;;;;;;4979763;28;94439;-36
2023/08/21 04:18:36;;;;;;;2.53;2.30;;;;;;;;;;4986334;28;92227;-32
2023/08/21 04:21:02;;;;;;;;;;;;;;;;;;5008369;28;95654;-33
2023/08/21 04:23:28;;;;;;;3.55;2.05;;;;;;;;;;4996514;28;93879;-34
2023/08/21 04:26:00;;;;;;;3.28;1.60;;;;;;;;;;4979749;28;93428;-32
2023/08/21 04:28:26;;;;;;;3.38;2.17;;;;;;;;;;4992545;28;94471;-31
2023/08/21 04:30:52;;;;;;;4.20;2.08;;;;;;;;;;4961697;28;94918;-35
2023/08/21 04:33:18;;;;;;;3.25;2.22;;;;;;;;;;4992377;28;94652;-35
2023/08/21 04:35:44;;;;;;;2.35;1.77;;;;;;;;;;4979557;28;93339;-36
2023/08/21 04:38:10;;;;;;;5.63;2.75;;;;;;;;;;4984911;28;93511;-38
2023/08/21 04:40:36;;;;;;;5.07;1.63;;;;;;;;;;4987799;28;96199;-35
2023/08/21 04:43:02;;;;;;;3.90;2.03;;;;;;;;;;4979990;28;94666;-31
2023/08/21 04:45:28;;;;;;;5.60;1.90;;;;;;;;;;4979629;28;95487;-36
2023/08/21 04:47:54;;;;;;;1.85;1.73;;;;;;;;;;4990309;28;93241;-34
2023/08/21 04:50:20;;;;;;;3.83;2.30;;;;;;;;;;4990045;28;94797;-34
2023/08/21 04:52:46;;;;;;;5.45;1.75;;;;;;;;;;4992732;28;94538;-31
2023/08/21 04:55:12;;;;;;;6.38;2.60;;;;;;;;;;4979668;28;94517;-36
2023/08/21 04:57:38;;;;;;;4.35;2.08;;;;;;;;;;4992590;28;93148;-32
2023/08/21 05:00:04;;;;;;;5.40;1.90;;;;;;;;;;4978959;28;94769;-34
2023/08/21 05:02:30;;;;;;;3.63;1.88;;;;;;;;;;5004586;28;94407;-32
2023/08/21 05:04:56;;;;;;;2.75;2.15;;;;;;;;;;4996955;28;92925;-34
2023/08/21 05:07:22;;;;;;;5.65;1.67;;;;;;;;;;4993890;28;94376;-35
2023/08/21 05:09:48;;;;;;;3.47;1.80;;;;;;;;;;4996675;28;95934;-36
2023/08/21 05:12:14;;;;;;;2.30;1.38;;;;;;;;;;4996206;28;94957;-31
2023/08/21 05:14:40;;;;;;;6.93;1.80;;;;;;;;;;4997291;28;92503;-33
2023/08/21 05:17:06;;;;;;;4.90;1.90;;;;;;;;;;4995660;28;93261;-37
2023/08/21 05:19:33;;;;;;;6.18;2.30;;;;;;;;;;5008553;28;96067;-33
2023/08/21 05:21:59;;;;;;;2.92;2.05;;;;;;;;;;4999203;28;94059;-37
2023/08/21 05:24:25;;;;;;;1.88;1.60;;;;;;;;;;4986604;28;94040;-32
2023/08/21 05:26:51;;;;;;;2.60;1.88;;;;;;;;;;4991622;28;92733;-34
2023/08/21 05:29:17;;;;;;;4.72;2.55;;;;;;;;;;4978260;28;95278;-32
2023/08/21 05:31:43;;;;;;;3.78;1.88;;;;;;;;;;4978215;28;94456;-34
2023/08/21 05:34:09;;;;;;;8.27;1.83;;;;;;;;;;4977658;28;95117;-33
2023/08/21 05:36:35;;;;;;;3.70;2.00;;;;;;;;;;4978626;28;94767;-32
2023/08/21 05:39:05;;;;;;;5.00;2.40;;;;;;;;;;4977721;28;95857;-32
2023/08/21 05:41:31;;;;;;;11.55;2.35;;;;;;;;;;4990684;28;94308;-31
2023/08/21 05:43:57;;;;;;;2.67;2.40;;;;;;;;;;4978118;28;93696;-35
2023/08/21 05:46:23;;;;;;;2.45;1.67;;;;;;;;;;4977333;28;93538;-35
2023/08/21 05:48:49;;;;;;;3.95;2.20;;;;;;;;;;4977231;28;94458;-33
2023/08/21 05:51:15;;;;;;;2.88;1.98;;;;;;;;;;4990837;28;94026;-38
2023/08/21 05:53:41;;;;;;;4.80;2.10;;;;;;;;;;4977869;28;94688;-33
2023/08/21 05:56:07;;;;;;;4.03;1.90;;;;;;;;;;4979865;28;92651;-36
2023/08/21 05:58:34;;;;;;;8.73;2.15;;;;;;;;;;4976503;28;96403;-31
2023/08/21 06:01:00;;;;;;;3.03;1.63;;;;;;;;;;4984461;28;97500;-34
2023/08/21 06:03:26;;;;;;;2.20;1.77;;;;;;;;;;4995636;28;93405;-38
2023/08/21 06:05:52;;;;;;;3.13;2.30;;;;;;;;;;4995008;28;93578;-35
2023/08/21 06:08:18;;;;;;;1.80;1.70;;;;;;;;;;4996347;28;95156;-34
2023/08/21 06:10:44;;;;;;;3.83;2.03;;;;;;;;;;4995733;28;94658;-35
2023/08/21 06:13:10;;;;;;;1.67;1.58;;;;;;;;;;4996135;28;95202;-32
2023/08/21 06:15:36;;;;;;;2.45;2.03;;;;;;;;;;4995063;28;91367;-34
2023/08/21 06:18:02;;;;;;;3.67;2.10;;;;;;;;;;4995789;28;94248;-33
2023/08/21 06:20:28;;;;;;;2.30;1.92;;;;;;;;;;4992530;28;94086;-34
2023/08/21 06:22:54;;;;;;;4.22;2.38;;;;;;;;;;4986490;28;93253;-32
2023/08/21 06:25:20;;;;;;;4.40;1.85;;;;;;;;;;4969397;28;92654;-33
2023/08/21 06:27:46;;;;;;;4.38;2.85;;;;;;;;;;4986630;28;94489;-36
2023/08/21 06:30:13;;;;;;;4.95;2.60;;;;;;;;;;4986487;28;95049;-31
2023/08/21 06:32:39;;;;;;;4.47;2.08;;;;;;;;;;4981165;28;92108;-33
2023/08/21 06:35:05;;;;;;;5.65;2.40;;;;;;;;;;4983957;28;94967;-32
2023/08/21 06:37:32;;;;;;;5.60;2.75;;;;;;;;;;4989967;28;94602;-32
2023/08/21 06:39:58;;;;;;;6.68;2.67;;;;;;;;;;4984459;28;94760;-31
2023/08/21 06:42:24;;;;;;;7.95;2.80;;;;;;;;;;4989896;28;94291;-37
2023/08/21 06:44:50;;;;;;;7.60;2.75;;;;;;;;;;4986632;28;92996;-36
2023/08/21 06:47:16;;;;;;;4.05;2.45;;;;;;;;;;4977594;28;95498;-34
2023/08/21 06:49:42;;;;;;;7.13;2.35;;;;;;;;;;4975896;28;94406;-34
2023/08/21 06:52:08;;;;;;;5.45;3.28;;;;;;;;;;4975053;28;92304;-35
2023/08/21 06:54:34;;;;;;;2.30;1.98;;;;;;;;;;4976541;28;94530;-31
2023/08/21 06:57:00;;;;;;;7.43;2.38;;;;;;;;;;4984937;28;94824;-37
2023/08/21 06:59:26;;;;;;;3.92;2.25;;;;;;;;;;4991216;28;96383;-35
2023/08/21 07:01:55;;;;;;;2.60;2.40;;;;;;;;;;4994649;28;93152;-34
2023/08/21 07:04:24;;;;;;;5.93;2.10;;;;;;;;;;4983220;28;91897;-33
2023/08/21 07:06:51;;;;;;;2.83;2.17;;;;;;;;;;4975938;28;94175;-32
2023/08/21 07:09:17;;;;;;;5.57;2.58;;;19.90;99.90;;;;;;4977280;28;93500;-33
2023/08/21 07:11:42;;;;;;;4.50;2.40;;;20.20;99.90;;;;;;4987464;28;94244;-31
2023/08/21 07:14:08;;;;;;;4.75;2.40;;;20.50;99.90;;;;;;4978735;28;93599;-33
2023/08/21 07:16:33;;;;;;;9.20;3.08;;;20.90;99.90;;;;;;4974743;28;94809;-33
2023/08/21 07:19:00;;;;;;;5.97;2.28;;;;;;;;;;4988248;28;93869;-32
2023/08/21 07:21:28;;;;;;;2.80;2.08;;;;;;;;;;4986396;28;92498;-32
2023/08/21 07:23:57;;;;;;;;;;;;;;;;;;4982501;28;94694;-33
2023/08/21 07:26:24;;;;;;;3.80;1.63;;;21.60;99.90;;;;;;4979771;28;93865;-31
2023/08/21 07:28:51;;;;;;;6.13;2.75;;;21.80;99.90;;;;;;4973824;28;93964;-35
2023/08/21 07:31:20;;;;;;;3.28;1.98;;;22.30;99.90;;;;;;4976738;28;93933;-34
2023/08/21 07:33:46;;;;;;;4.90;2.00;;;;;;;;;;4986895;28;92996;-36
2023/08/21 07:36:16;;;;;;;4.63;1.70;;;;;;;;;;4992469;28;95596;-34
2023/08/21 07:38:43;;;;;;;3.17;1.73;;;22.50;99.90;;;;;;4985904;28;97728;-33
2023/08/21 07:41:11;;;;;;;5.07;1.65;;;22.50;99.90;;;;;;4998267;28;94335;-33
2023/08/21 07:43:37;;;;;;;5.22;1.70;;;22.80;99.90;;;;;;5005804;28;95261;-34
2023/08/21 07:46:07;;;;;;;3.58;1.70;;;23.10;99.90;;;;;;4994723;28;95032;-33
2023/08/21 07:48:33;;;;;;;3.85;1.42;;;23.10;99.90;;;;;;4996015;28;94853;-32
2023/08/21 07:50:59;;;;;;;5.50;2.40;;;23.50;99.90;;;;;;5007763;28;93881;-32
2023/08/21 07:53:25;;;;;;;2.33;1.65;;;23.50;99.90;;;;;;4996311;28;93837;-36
2023/08/21 07:55:51;;;;;;;1.00;0.82;;;23.70;99.90;;;;;;4994343;28;94380;-33
2023/08/21 07:58:18;;;;;;;6.47;1.67;;;23.90;99.90;;;;;;4992543;28;94356;-34
2023/08/21 08:00:43;;;;;;;2.35;1.95;;;23.80;99.90;;;;;;4994366;28;93553;-36
2023/08/21 08:03:10;;;;;;;2.85;1.48;;;24.20;99.90;;;;;;5006757;28;92296;-34
2023/08/21 08:05:36;;;;;;;4.03;1.35;;;24.50;99.90;;;;;;4981187;28;94370;-36
2023/08/21 08:08:02;;;;;;;5.28;1.98;;;;;;;;;;4976530;28;94999;-31
2023/08/21 08:10:28;;;;;;;2.22;1.92;;;;;;;;;;4991902;28;94479;-36
2023/08/21 08:12:54;;;;;;;2.95;1.92;;;;;;;;;;5006503;28;94049;-34
2023/08/21 08:15:21;;;;;;;2.97;1.73;;;;;;;;;;4996560;28;94318;-33
2023/08/21 08:17:51;;;;;;;5.13;2.10;;;;;;;;;;4995573;28;94547;-33
2023/08/21 08:20:17;;;;;;;4.03;2.00;;;;;;;;;;4982994;28;94220;-32
2023/08/21 08:22:44;;;;;;;10.80;2.17;;;;;;;;;;5032736;22;94604;-32
2023/08/21 08:25:10;;;;;;;3.63;1.38;;;;;;;;;;4998569;27;95192;-33
2023/08/21 08:27:36;;;;;;;3.38;2.17;;;;;;;;;;4998920;28;95733;-34
2023/08/21 08:30:03;;;;;;;4.63;1.90;;;;;;;;;;4997330;27;94905;-32
2023/08/21 08:32:29;;;;;;;2.75;1.58;;;;;;;;;;4988950;28;94372;-33
2023/08/21 08:34:55;;;;;;;2.58;1.30;;;;;;;;;;5011385;27;95097;-31
2023/08/21 08:37:21;;;;;;;3.92;2.33;;;;;;;;;;5008571;27;95090;-34
2023/08/21 08:39:47;;;;;;;4.93;1.88;;;;;;;;;;5010120;28;94973;-31
2023/08/21 08:42:14;;;;;;;3.50;1.75;;;;;;;;;;5005743;27;92401;-34
2023/08/21 08:44:41;;;;;;;6.40;2.63;;;;;;;;;;5015083;27;93589;-34
2023/08/21 08:47:07;;;;;;;1.45;1.30;;;;;;;;;;5006348;27;94450;-33
2023/08/21 08:49:33;;;;;;;2.40;1.50;;;;;;;;;;5010206;28;93075;-33
2023/08/21 08:52:00;;;;;;;3.20;1.73;;;;;;;;;;5010966;27;93408;-35
2023/08/21 08:54:27;;;;;;;2.53;1.48;;;;;;;;;;5007090;27;94490;-32
2023/08/21 08:56:53;;;;;;;2.07;1.30;;;;;;;;;;5005714;28;94664;-32
2023/08/21 08:59:19;;;;;;;1.48;1.13;;;;;;;;;;5011284;28;94337;-31
2023/08/21 09:01:46;;;;;;;3.08;1.45;;;;;;;;;;5017415;27;94571;-33
2023/08/21 09:04:12;;;;;;;1.65;1.30;;;;;;;;;;5016183;27;94801;-35
2023/08/21 09:06:38;;;;;;;4.38;1.17;;;;;;;;;;5015865;27;94807;-32
2023/08/21 09:09:04;;;;;;;2.50;1.48;;;;;;;;;;5015119;27;94345;-35
2023/08/21 09:11:30;;;;;;;0.93;0.90;;;;;;;;;;5015227;27;93749;-33
2023/08/21 09:13:56;;;;;;;4.05;1.38;;;;;;;;;;5013539;27;95628;-34
2023/08/21 09:16:25;;;;;;;5.82;1.80;;;;;;;;;;5014928;27;95702;-33
2023/08/21 09:18:56;;;;;;;2.38;1.13;;;;;;;;;;5015127;27;92814;-33
2023/08/21 09:21:23;;;;;;;2.75;0.90;;;;;;;;;;5014448;27;92930;-31
2023/08/21 09:23:51;;;;;;;4.88;1.60;;;;;;;;;;5014954;27;94710;-37
2023/08/21 09:26:20;;;;;;;3.75;1.80;;;;;;;;;;5014442;27;94786;-35
2023/08/21 09:28:47;;;;;;;1.83;1.55;;;;;;;;;;5015768;27;93445;-34
2023/08/21 09:31:13;;;;;;;2.15;1.45;;;;;;;;;;5015111;27;93509;-32
2023/08/21 09:33:39;;;;;;;2.88;1.23;;;;;;;;;;5014497;27;94259;-33
2023/08/21 09:36:05;;;;;;;4.50;1.75;;;;;;;;;;5014592;27;94788;-33
2023/08/21 09:38:31;;;;;;;4.63;1.60;;;;;;;;;;5013756;27;95396;-34
2023/08/21 09:40:57;;;;;;;1.00;1.00;;;;;;;;;;5014573;27;92855;-34
2023/08/21 09:43:23;;;;;;;2.85;1.40;;;;;;;;;;4996111;27;94473;-32
2023/08/21 09:45:53;;;;;;;2.08;1.60;;;;;;;;;;5014142;27;94751;-34
2023/08/21 09:48:20;;;;;;;1.40;1.30;;;;;;;;;;5014657;27;94158;-36
2023/08/21 09:50:47;;;;;;;2.07;1.20;;;;;;;;;;5014514;27;93583;-35
2023/08/21 09:53:13;;;;;;;2.85;1.45;;;;;;;;;;5013861;27;95630;-34
2023/08/21 09:55:39;;;;;;;2.55;1.55;;;;;;;;;;5014105;27;94201;-32
2023/08/21 09:58:05;;;;;;;2.53;1.08;;;;;;;;;;5014902;27;94126;-33
2023/08/21 10:00:33;;;;;;;1.80;1.35;;;;;;;;;;5013806;27;93285;-33
2023/08/21 10:03:01;;;;;;;4.57;1.85;;;;;;;;;;5013165;27;95345;-32
2023/08/21 10:05:27;;;;;;;4.70;1.58;;;;;;;;;;5013626;27;95439;-37
2023/08/21 10:07:53;;;;;;;5.22;1.52;;;;;;;;;;4996743;28;92812;-37
2023/08/21 10:10:19;;;;;;;2.28;0.82;;;;;;;;;;5013481;27;94419;-32
2023/08/21 10:12:46;;;;;;;5.30;1.60;;;;;;;;;;5014141;27;94611;-36
2023/08/21 10:15:12;;;;;;;1.30;1.15;;;;;;;;;;5013236;27;94767;-33
2023/08/21 10:17:38;;;;;;;1.80;1.48;;;;;;;;;;5014630;28;92675;-34
2023/08/21 10:20:05;;;;;;;2.10;1.20;;;;;;;;;;5014040;27;93066;-32
2023/08/21 10:22:37;;;;;;;1.95;1.05;;;;;;;;;;4995739;28;96925;-31
2023/08/21 10:25:04;;;;;;;5.40;1.50;;;;;;;;;;5013614;27;94589;-34
2023/08/21 10:27:30;;;;;;;3.03;1.30;;;;;;;;;;5013453;27;94073;-34
2023/08/21 10:29:59;;;;;;;1.75;1.20;;;;;;;;;;5013191;27;94330;-34
2023/08/21 10:32:25;;;;;;;1.00;0.80;;;;;;;;;;5012801;27;94618;-34
2023/08/21 10:34:53;;;;;;;7.13;1.38;;;;;;;;;;5013741;27;94582;-33
2023/08/21 10:37:19;;;;;;;1.25;0.98;;;;;;;;;;5014065;27;93447;-33
2023/08/21 10:39:56;;;;;;;3.83;1.10;;;;;;;;;;5013212;27;93413;-32
2023/08/21 10:42:38;;;;;;;7.28;1.65;;;;;;;;;;5013240;27;95267;-35
2023/08/21 10:45:10;;;;;;;1.90;1.20;;;;;;;;;;5013611;27;92705;-35
2023/08/21 10:47:36;;;;;;;1.42;1.30;;;;;;;;;;5014819;27;93047;-33
2023/08/21 10:50:07;;;;;;;4.35;1.55;;;;;;;;;;5013412;28;94416;-34
2023/08/21 10:52:37;;;;;;;1.90;1.30;;;;;;;;;;5012689;27;95727;-32
2023/08/21 10:55:04;;;;;;;2.35;1.25;;;;;;;;;;5013300;27;94046;-34
2023/08/21 10:57:30;;;;;;;3.65;1.77;;;;;;;;;;5013604;27;94143;-32
2023/08/21 10:59:57;;;;;;;3.05;1.42;;;;;;;;;;5014308;27;92084;-34
2023/08/21 11:02:23;;;;;;;3.03;1.05;;;;;;;;;;5012827;27;94694;-35
2023/08/21 11:04:50;;;;;;;1.92;1.50;;;;;;;;;;5012623;27;94020;-34
2023/08/21 11:07:16;;;;;;;3.50;1.58;;;;;;;;;;5013230;27;94776;-37
2023/08/21 11:09:43;;;;;;;2.10;1.13;;;;;;;;;;5014410;27;91855;-36
2023/08/21 11:12:11;;;;;;;2.33;1.77;;;;;;;;;;5013318;27;94828;-33
2023/08/21 11:14:37;;;;;;;3.13;1.38;;;;;;;;;;5013459;27;94492;-32
2023/08/21 11:17:04;;;;;;;3.47;1.40;;;;;;;;;;5012946;27;95258;-36
2023/08/21 11:19:33;;;;;;;1.50;1.13;;;;;;;;;;5013104;27;94743;-33
2023/08/21 11:22:03;;;;;;;3.25;1.38;;;;;;;;;;5012832;27;94226;-34
2023/08/21 11:24:38;;;;;;;0.93;0.93;;;;;;;;;;5013006;27;93997;-33
2023/08/21 11:27:04;;;;;;;2.22;1.88;;;;;;;;;;5013494;27;93876;-35
2023/08/21 11:29:41;;;;;;;5.18;1.30;;;;;;;;;;5013331;27;93092;-34
2023/08/21 11:32:10;;;;;;;6.10;1.35;;;;;;;;;;5013174;27;94567;-36
2023/08/21 11:34:37;;;;;;;1.50;1.40;;;;;;;;;;5012778;27;95116;-33
2023/08/21 11:37:04;;;;;;;2.63;1.10;;;;;;;;;;5014578;27;94572;-36
2023/08/21 11:39:40;;;;;;;2.85;0.98;;;;;;;;;;5013148;27;93501;-32
2023/08/21 11:42:11;;;;;;;3.22;1.17;;;;;;;;;;5012134;27;96212;-32
2023/08/21 11:44:47;;;;;;;1.95;0.63;;;;;;;;;;5012055;27;95285;-32
2023/08/21 11:47:14;;;;;;;0.88;0.73;;;;;;;;;;5013118;27;93591;-35
2023/08/21 11:49:41;;;;;;;3.33;1.35;;;;;;;;;;5013575;27;94495;-34
2023/08/21 11:52:08;;;;;;;2.35;1.52;;;;;;;;;;5012446;27;94184;-37
2023/08/21 11:54:35;;;;;;;3.78;1.13;;;;;;;;;;5009113;27;93807;-34
2023/08/21 11:57:01;;;;;;;;;;;;;;;;;;5010414;27;93515;-32
2023/08/21 11:59:30;;;;;;;2.30;2.03;;;;;;;;;;5013989;27;94063;-31
2023/08/21 12:01:56;;;;;;;3.10;1.23;;;;;;;;;;5011029;28;94830;-36
2023/08/21 12:04:22;;;;;;;3.15;1.42;;;;;;;;;;5012316;27;94273;-34
2023/08/21 12:06:48;;;;;;;3.33;2.22;;;;;;;;;;5012620;27;94049;-32
2023/08/21 12:09:14;;;;;;;5.30;1.77;;;;;;;;;;5011849;27;94775;-33
2023/08/21 12:11:40;;;;;;;6.35;2.05;;;;;;;;;;5013091;27;95084;-34
2023/08/21 12:14:07;;;;;;;3.75;2.13;;;;;;;;;;5012428;28;94094;-34
2023/08/21 12:16:33;;;;;;;1.90;1.50;;;;;;;;;;5014579;27;93804;-38
2023/08/21 12:18:59;;;;;;;2.58;1.30;;;;;;;;;;5015906;27;94765;-37
2023/08/21 12:21:26;;;;;;;2.20;1.55;;;;;;;;;;5002166;27;95692;-35
2023/08/21 12:23:52;;;;;;;2.33;1.50;;;;;;;;;;5003330;28;94196;-34
2023/08/21 12:26:21;;;;;;;3.25;1.30;;;;;;;;;;5002093;27;93130;-34
2023/08/21 12:28:47;;;;;;;2.65;1.45;;;;;;;;;;4996433;27;94201;-33
2023/08/21 12:31:13;;;;;;;3.67;1.30;;;;;;;;;;4994486;28;96966;-36
2023/08/21 12:33:39;;;;;;;3.28;1.40;;;;;;;;;;4996730;28;93863;-34
2023/08/21 12:36:05;;;;;;;1.50;1.40;;;;;;;;;;4995983;27;94592;-33
2023/08/21 12:38:32;;;;;;;3.97;1.70;;;;;;;;;;4995250;27;92725;-35
2023/08/21 12:40:58;;;;;;;2.27;0.90;;;;;;;;;;4995996;28;94259;-34
2023/08/21 12:43:25;;;;;;;2.25;1.27;;;;;;;;;;4995369;28;94437;-35
2023/08/21 12:45:51;;;;;;;2.15;1.35;;;;;;;;;;4980141;28;92839;-34
2023/08/21 12:48:17;;;;;;;3.70;1.90;;;;;;;;;;5007109;28;93501;-37
2023/08/21 12:50:43;;;;;;;12.32;2.45;;;;;;;;;;4995739;28;96105;-34
2023/08/21 12:53:09;;;;;;;1.50;1.40;;;;;;;;;;4986504;28;96095;-34
2023/08/21 12:55:35;;;;;;;4.95;1.20;;;;;;;;;;5014850;27;94172;-35
2023/08/21 12:58:02;;;;;;;2.17;1.42;;;;;;;;;;5015332;28;92720;-35
2023/08/21 13:00:28;;;;;;;1.38;1.17;;;;;;;;;;5002107;27;94867;-37
2023/08/21 13:02:54;;;;;;;1.77;1.52;;;;;;;;;;5015615;27;94503;-36
2023/08/21 13:05:20;;;;;;;3.72;1.90;;;;;;;;;;4996583;27;93170;-37
2023/08/21 13:07:46;;;;;;;1.60;1.27;;;;;;;;;;5019649;27;94243;-37
2023/08/21 13:10:12;;;;;;;5.47;1.90;;;;;;;;;;5014076;27;94849;-35
2023/08/21 13:12:38;;;;;;;4.03;1.08;;;;;;;;;;5014691;27;94565;-33
2023/08/21 13:15:07;;;;;;;6.25;1.38;;;;;;;;;;5014590;27;92249;-35
2023/08/21 13:17:33;;;;;;;1.85;1.38;;;;;;;;;;5015259;28;93113;-32
2023/08/21 13:19:59;;;;;;;2.53;1.60;;;;;;;;;;5013410;27;96710;-36
2023/08/21 13:22:25;;;;;;;3.55;2.45;;;;;;;;;;5015168;28;95480;-37
2023/08/21 13:24:51;;;;;;;3.35;2.05;;;;;;;;;;5015168;27;94627;-34
2023/08/21 13:27:17;;;;;;;2.50;0.90;;;;;;;;;;5013723;27;92233;-33
2023/08/21 13:29:43;;;;;;;2.70;1.75;;;;;;;;;;5014112;27;94807;-35
2023/08/21 13:32:10;;;;;;;3.45;1.73;;;;;;;;;;5014339;27;95680;-35
2023/08/21 13:34:36;;;;;;;8.68;2.25;;;;;;;;;;5014573;27;93218;-36
2023/08/21 13:37:02;;;;;;;1.77;1.63;;;;;;;;;;5015711;27;92310;-38
2023/08/21 13:39:28;;;;;;;1.15;1.05;;;;;;;;;;5013516;27;93097;-35
2023/08/21 13:41:54;;;;;;;4.18;1.33;;;;;;;;;;5014261;27;95072;-34
2023/08/21 13:44:20;;;;;;;3.35;1.52;;;;;;;;;;5013834;27;93986;-34
2023/08/21 13:46:46;;;;;;;2.10;1.42;;;;;;;;;;5014278;27;94331;-31
2023/08/21 13:49:12;;;;;;;2.30;1.90;;;;;;;;;;5013478;27;94761;-37
2023/08/21 13:51:38;;;;;;;3.67;1.17;;;;;;;;;;5014271;27;94411;-33
2023/08/21 13:54:04;;;;;;;1.60;1.38;;;;;;;;;;5017384;27;94203;-38
2023/08/21 13:56:30;;;;;;;7.00;1.70;;;;;;;;;;5014536;28;93080;-31
2023/08/21 13:58:56;;;;;;;2.53;1.13;;;;;;;;;;5014077;27;94767;-35
2023/08/21 14:01:22;;;;;;;2.72;1.60;;;;;;;;;;5014950;28;94658;-37